Time;durP1;ratioP1;P1;durP2;ratioP2;P2;SDS_P1;SDS_P2;PMS_P1;PMS_P2;Temp;Humidity;BMP_temperature;BMP_pressure;BME280_temperature;BME280_humidity;BME280_pressure;Samples;Min_cycle;Max_cycle;Signal;HPM_P1;HPM_P2
2021/03/05 00:00:07;;;;;;;23.60;13.73;;;0.90;95.00;;;;;;5101053;28;20144;-79
2021/03/05 00:02:33;;;;;;;26.27;14.65;;;1.00;95.10;;;;;;5108724;28;20349;-79
2021/03/05 00:04:59;;;;;;;25.30;15.85;;;0.90;95.00;;;;;;5108572;28;20059;-79
2021/03/05 00:07:25;;;;;;;23.30;13.65;;;0.90;95.00;;;;;;5111976;28;20032;-79
2021/03/05 00:09:51;;;;;;;29.92;15.77;;;0.90;95.00;;;;;;5109698;28;20066;-79
2021/03/05 00:12:17;;;;;;;23.23;15.27;;;0.90;94.90;;;;;;5107510;28;20036;-79
2021/03/05 00:14:44;;;;;;;23.90;14.95;;;0.80;95.10;;;;;;5111515;28;20383;-79
2021/03/05 00:17:10;;;;;;;28.55;15.48;;;0.90;95.00;;;;;;5110980;28;20127;-79
2021/03/05 00:19:37;;;;;;;29.55;14.68;;;0.80;94.90;;;;;;5108472;28;20050;-79
2021/03/05 00:22:03;;;;;;;22.95;14.07;;;0.70;95.00;;;;;;5115341;27;20042;-79
2021/03/05 00:24:29;;;;;;;29.83;14.85;;;0.70;95.00;;;;;;5111545;28;20036;-79
2021/03/05 00:26:55;;;;;;;26.10;14.80;;;0.70;95.10;;;;;;5111595;28;20039;-79
2021/03/05 00:29:21;;;;;;;27.27;14.93;;;0.60;95.00;;;;;;5111787;28;20031;-79
2021/03/05 00:31:47;;;;;;;23.20;13.55;;;0.60;95.10;;;;;;5104838;28;20050;-79
2021/03/05 00:34:13;;;;;;;25.10;15.30;;;0.60;95.20;;;;;;5113272;28;20032;-79
2021/03/05 00:36:39;;;;;;;26.30;13.10;;;0.60;95.10;;;;;;5106067;28;20034;-79
2021/03/05 00:39:05;;;;;;;23.40;14.30;;;0.60;95.30;;;;;;5116052;27;20104;-79
2021/03/05 00:41:30;;;;;;;26.35;14.77;;;0.50;95.20;;;;;;5112873;28;20143;-79
2021/03/05 00:43:56;;;;;;;28.75;14.35;;;0.50;95.30;;;;;;5115536;28;20391;-79
2021/03/05 00:46:22;;;;;;;27.42;14.43;;;0.50;95.50;;;;;;5106061;28;20036;-79
2021/03/05 00:48:48;;;;;;;23.40;13.95;;;0.50;95.50;;;;;;5110567;27;20456;-79
2021/03/05 00:51:14;;;;;;;27.10;15.00;;;0.50;95.50;;;;;;5104513;28;20096;-79
2021/03/05 00:53:40;;;;;;;21.55;12.68;;;0.50;95.60;;;;;;5111023;28;20494;-79
2021/03/05 00:56:05;;;;;;;31.23;14.45;;;0.50;95.40;;;;;;5111330;27;20055;-80
2021/03/05 00:58:33;;;;;;;28.92;14.88;;;0.50;95.70;;;;;;5105193;28;20051;-79
2021/03/05 01:00:58;;;;;;;29.23;14.60;;;0.50;95.60;;;;;;5114077;28;20399;-79
2021/03/05 01:03:24;;;;;;;26.02;14.75;;;0.40;95.50;;;;;;5108534;28;20135;-79
2021/03/05 01:05:50;;;;;;;26.73;14.65;;;0.40;95.50;;;;;;5114032;28;20131;-79
2021/03/05 01:08:16;;;;;;;27.80;14.07;;;0.40;95.70;;;;;;5111486;28;20039;-79
2021/03/05 01:10:42;;;;;;;30.55;13.90;;;0.40;95.80;;;;;;5114720;28;20043;-79
2021/03/05 01:13:08;;;;;;;25.10;13.85;;;0.40;95.60;;;;;;5108355;27;20044;-79
2021/03/05 01:15:34;;;;;;;28.48;13.27;;;0.40;95.80;;;;;;5109059;28;20122;-79
2021/03/05 01:18:00;;;;;;;30.58;14.23;;;0.40;95.80;;;;;;5111608;28;20050;-79
2021/03/05 01:20:27;;;;;;;31.08;14.73;;;0.40;95.70;;;;;;5114413;28;20028;-79
2021/03/05 01:22:54;;;;;;;27.02;14.10;;;0.40;95.80;;;;;;5114674;28;20038;-79
2021/03/05 01:25:22;;;;;;;26.17;13.98;;;0.40;95.80;;;;;;5106935;28;20027;-79
2021/03/05 01:27:49;;;;;;;25.70;13.25;;;0.30;95.70;;;;;;5111900;28;20036;-80
2021/03/05 01:30:16;;;;;;;23.70;12.02;;;0.30;95.70;;;;;;5111178;27;20048;-79
2021/03/05 01:32:43;;;;;;;36.92;16.10;;;0.30;95.70;;;;;;5106528;28;20036;-79
2021/03/05 01:35:18;;;;;;;30.02;14.32;;;0.30;95.60;;;;;;5112106;28;20044;-79
2021/03/05 01:37:44;;;;;;;;;;;0.20;95.70;;;;;;5112031;28;20064;-79
2021/03/05 01:40:13;;;;;;;30.55;13.40;;;0.30;96.20;;;;;;5107140;28;20344;-79
2021/03/05 01:42:39;;;;;;;29.13;15.57;;;0.30;96.20;;;;;;5111871;28;20051;-79
2021/03/05 01:45:14;;;;;;;25.75;13.10;;;0.30;96.20;;;;;;5108225;28;20487;-79
2021/03/05 01:47:41;;;;;;;23.38;12.95;;;0.20;96.00;;;;;;5101732;28;20032;-79
2021/03/05 01:50:18;;;;;;;37.40;13.02;;;0.20;95.90;;;;;;5112664;28;20039;-80
2021/03/05 01:52:45;;;;;;;27.02;12.30;;;0.20;95.70;;;;;;5112759;27;20225;-79
2021/03/05 01:55:12;;;;;;;29.02;12.95;;;0.10;95.70;;;;;;5108224;27;20115;-79
2021/03/05 01:57:38;;;;;;;27.58;13.15;;;0.10;95.70;;;;;;5103816;28;20043;-79
2021/03/05 02:00:07;;;;;;;25.23;12.75;;;0.10;95.90;;;;;;5109460;27;20742;-79
2021/03/05 02:02:33;;;;;;;22.63;11.60;;;0.00;95.70;;;;;;5109292;28;20032;-79
2021/03/05 02:04:59;;;;;;;27.75;13.27;;;0.00;95.80;;;;;;5103243;28;20043;-79
2021/03/05 02:07:25;;;;;;;24.65;12.43;;;0.00;95.70;;;;;;5106960;27;20091;-79
2021/03/05 02:09:50;;;;;;;27.08;12.82;;;0.00;95.80;;;;;;5111604;28;20044;-79
2021/03/05 02:12:16;;;;;;;22.80;11.48;;;0.00;95.90;;;;;;5106489;28;20167;-79
2021/03/05 02:14:42;;;;;;;28.35;12.77;;;0.00;96.00;;;;;;5111825;28;20064;-79
2021/03/05 02:17:16;;;;;;;24.73;11.65;;;0.00;96.00;;;;;;5108584;28;22486;-79
2021/03/05 02:20:05;;;;;;;28.23;12.45;;;0.00;95.90;;;;;;5114805;28;20040;-79
2021/03/05 02:22:44;;;;;;;28.05;11.85;;;0.00;95.90;;;;;;5104678;28;20040;-79
2021/03/05 02:25:30;;;;;;;23.02;10.70;;;0.00;96.20;;;;;;5107230;28;20036;-79
2021/03/05 02:28:11;;;;;;;29.50;11.63;;;0.10;96.10;;;;;;5110992;28;20075;-79
2021/03/05 02:30:59;;;;;;;28.05;11.25;;;0.10;96.10;;;;;;5103888;28;20096;-79
2021/03/05 02:33:40;;;;;;;24.25;9.80;;;0.10;96.10;;;;;;5107720;27;20032;-79
2021/03/05 02:36:09;;;;;;;22.85;10.63;;;0.10;96.20;;;;;;5102619;28;20103;-79
2021/03/05 02:38:36;;;;;;;26.05;10.35;;;0.10;96.10;;;;;;5103442;28;20020;-79
2021/03/05 02:41:06;;;;;;;22.58;9.23;;;0.20;96.30;;;;;;5101887;28;20201;-79
2021/03/05 02:43:34;;;;;;;22.45;10.15;;;0.20;96.20;;;;;;5113798;28;20063;-79
2021/03/05 02:46:03;;;;;;;19.95;9.40;;;0.20;96.20;;;;;;5105220;28;20552;-79
2021/03/05 02:48:37;;;;;;;18.67;9.85;;;0.20;96.20;;;;;;5111958;28;20395;-79
2021/03/05 02:51:06;;;;;;;19.15;9.45;;;0.20;96.10;;;;;;5093049;28;20056;-79
2021/03/05 02:53:34;;;;;;;19.67;10.50;;;0.30;96.10;;;;;;5103194;28;20048;-79
2021/03/05 02:56:14;;;;;;;17.40;8.52;;;0.30;96.10;;;;;;5111233;28;20035;-79
2021/03/05 02:58:47;;;;;;;17.13;9.10;;;0.40;96.10;;;;;;5111053;28;20059;-79
2021/03/05 03:01:15;;;;;;;22.25;9.48;;;0.40;96.10;;;;;;5103527;28;20040;-79
2021/03/05 03:03:42;;;;;;;16.90;8.52;;;0.30;96.00;;;;;;5110974;28;20478;-79
2021/03/05 03:06:10;;;;;;;18.52;9.15;;;0.40;96.10;;;;;;5105986;28;20146;-79
2021/03/05 03:08:36;;;;;;;18.40;8.32;;;0.40;96.00;;;;;;5105498;28;20067;-79
2021/03/05 03:11:04;;;;;;;21.00;8.88;;;0.40;96.00;;;;;;5105120;28;20111;-79
2021/03/05 03:13:35;;;;;;;17.58;8.30;;;0.40;96.00;;;;;;5109898;27;20036;-79
2021/03/05 03:16:02;;;;;;;15.02;8.05;;;0.30;95.90;;;;;;5101648;28;20513;-79
2021/03/05 03:18:29;;;;;;;16.55;8.25;;;0.30;95.80;;;;;;5107511;28;20040;-79
2021/03/05 03:20:59;;;;;;;20.83;9.23;;;0.20;95.80;;;;;;5108025;28;20046;-79
2021/03/05 03:23:25;;;;;;;20.67;8.43;;;0.10;95.70;;;;;;5110292;28;20126;-79
2021/03/05 03:25:52;;;;;;;15.48;7.88;;;0.10;95.70;;;;;;5110162;28;20138;-79
2021/03/05 03:28:19;;;;;;;16.92;7.78;;;0.00;95.70;;;;;;5109775;28;20138;-79
2021/03/05 03:30:45;;;;;;;18.95;8.65;;;0.00;95.60;;;;;;5106482;28;20028;-80
2021/03/05 03:33:12;;;;;;;19.13;8.48;;;-0.10;95.60;;;;;;5104783;27;20047;-79
2021/03/05 03:35:39;;;;;;;17.50;8.15;;;-0.20;95.60;;;;;;5106604;28;20032;-79
2021/03/05 03:38:08;;;;;;;16.27;9.18;;;-0.20;95.60;;;;;;5112153;28;20046;-79
2021/03/05 03:40:35;;;;;;;18.65;8.50;;;-0.30;95.50;;;;;;5106289;28;20124;-79
2021/03/05 03:43:02;;;;;;;16.42;8.27;;;-0.30;95.60;;;;;;5106267;28;20055;-79
2021/03/05 03:45:30;;;;;;;17.60;9.63;;;-0.30;95.70;;;;;;5104688;28;20104;-79
2021/03/05 03:47:58;;;;;;;16.83;8.57;;;-0.30;95.70;;;;;;5110984;28;20151;-79
2021/03/05 03:50:40;;;;;;;19.95;8.95;;;-0.30;95.70;;;;;;5102613;28;20459;-79
2021/03/05 03:53:20;;;;;;;20.90;8.70;;;-0.30;95.70;;;;;;5105109;28;20464;-79
2021/03/05 03:55:53;;;;;;;29.60;9.70;;;-0.30;95.70;;;;;;5108815;28;20392;-79
2021/03/05 03:58:24;;;;;;;20.73;8.60;;;-0.30;95.80;;;;;;5106579;28;20044;-79
2021/03/05 04:00:53;;;;;;;21.25;8.95;;;-0.30;95.80;;;;;;5097830;28;20055;-79
2021/03/05 04:03:22;;;;;;;16.60;8.95;;;-0.30;95.90;;;;;;5114131;28;20051;-79
2021/03/05 04:05:49;;;;;;;18.20;9.05;;;-0.40;95.90;;;;;;5107704;28;20403;-79
2021/03/05 04:08:18;;;;;;;22.70;9.18;;;-0.40;96.00;;;;;;5098926;28;20040;-79
2021/03/05 04:10:45;;;;;;;15.75;8.00;;;-0.40;96.00;;;;;;5105587;28;20035;-78
2021/03/05 04:13:14;;;;;;;24.77;9.23;;;-0.50;95.90;;;;;;5105721;28;20040;-79
2021/03/05 04:15:41;;;;;;;19.88;8.25;;;-0.40;95.80;;;;;;5103135;28;20518;-79
2021/03/05 04:18:07;;;;;;;17.73;8.63;;;-0.50;95.70;;;;;;5105618;28;20097;-79
2021/03/05 04:20:37;;;;;;;17.83;7.60;;;-0.50;95.80;;;;;;5108535;28;20028;-79
2021/03/05 04:23:05;;;;;;;17.85;6.97;;;-0.60;95.80;;;;;;5106782;28;20711;-79
2021/03/05 04:25:31;;;;;;;16.02;7.18;;;-0.50;95.80;;;;;;5119038;27;20352;-79
2021/03/05 04:27:57;;;;;;;18.85;7.25;;;-0.60;95.80;;;;;;5106261;28;20035;-79
2021/03/05 04:30:24;;;;;;;15.15;8.05;;;-0.60;95.90;;;;;;5104887;28;20096;-80
2021/03/05 04:32:50;;;;;;;16.83;6.72;;;-0.70;95.80;;;;;;5110223;28;20073;-79
2021/03/05 04:35:16;;;;;;;19.80;6.50;;;-0.70;95.80;;;;;;5111854;28;20154;-79
2021/03/05 04:37:42;;;;;;;13.23;6.07;;;-0.70;95.80;;;;;;5109232;28;20102;-79
2021/03/05 04:40:10;;;;;;;15.20;6.00;;;-0.70;95.80;;;;;;5108043;28;20046;-79
2021/03/05 04:42:37;;;;;;;15.52;5.88;;;-0.70;95.70;;;;;;5107445;28;20051;-79
2021/03/05 04:45:04;;;;;;;14.55;6.13;;;-0.80;95.60;;;;;;5103433;28;20443;-79
2021/03/05 04:47:30;;;;;;;18.58;5.78;;;-0.80;95.60;;;;;;5104212;28;20044;-79
2021/03/05 04:49:56;;;;;;;17.55;6.00;;;-0.90;95.50;;;;;;5108150;28;20048;-79
2021/03/05 04:52:22;;;;;;;17.17;5.47;;;-0.90;95.50;;;;;;5103725;28;20052;-79
2021/03/05 04:54:48;;;;;;;13.10;5.68;;;-0.90;95.60;;;;;;5111887;28;20035;-79
2021/03/05 04:57:14;;;;;;;13.00;5.22;;;-1.00;95.60;;;;;;5107564;28;20088;-79
2021/03/05 04:59:40;;;;;;;14.00;5.35;;;-1.00;95.60;;;;;;5109433;28;20048;-79
2021/03/05 05:02:06;;;;;;;9.60;4.60;;;-1.10;95.50;;;;;;5102458;28;20047;-79
2021/03/05 05:04:31;;;;;;;15.65;5.28;;;-1.10;95.50;;;;;;5104728;28;20355;-79
2021/03/05 05:06:57;;;;;;;13.68;4.93;;;-1.10;95.50;;;;;;5110079;28;20036;-79
2021/03/05 05:09:23;;;;;;;12.30;4.63;;;-1.20;95.50;;;;;;5110554;27;20052;-79
2021/03/05 05:11:49;;;;;;;11.85;4.70;;;-1.20;95.50;;;;;;5110424;28;20058;-79
2021/03/05 05:14:15;;;;;;;16.88;4.68;;;-1.20;95.50;;;;;;5095723;28;20044;-79
2021/03/05 05:16:41;;;;;;;15.80;4.38;;;-1.20;95.50;;;;;;5109078;28;20028;-79
2021/03/05 05:19:07;;;;;;;13.52;3.83;;;-1.30;95.30;;;;;;5109100;28;20043;-79
2021/03/05 05:21:33;;;;;;;10.10;3.47;;;-1.40;95.30;;;;;;5113082;28;20483;-79
2021/03/05 05:23:59;;;;;;;11.68;3.35;;;-1.40;95.30;;;;;;5111393;27;20182;-79
2021/03/05 05:26:25;;;;;;;12.70;3.72;;;-1.50;95.30;;;;;;5112868;28;20031;-79
2021/03/05 05:28:51;;;;;;;8.10;3.25;;;-1.50;95.30;;;;;;5108053;28;20096;-79
2021/03/05 05:31:18;;;;;;;15.98;4.57;;;-1.50;95.20;;;;;;5107466;28;20032;-79
2021/03/05 05:33:44;;;;;;;11.93;3.38;;;-1.60;95.20;;;;;;5104539;27;20107;-79
2021/03/05 05:36:10;;;;;;;14.27;4.22;;;-1.60;95.20;;;;;;5112216;28;20139;-80
2021/03/05 05:38:35;;;;;;;8.73;3.08;;;-1.60;95.20;;;;;;5108814;27;20120;-80
2021/03/05 05:41:04;;;;;;;12.77;3.30;;;-1.70;95.10;;;;;;5110526;28;20487;-80
2021/03/05 05:43:31;;;;;;;11.70;3.03;;;-1.70;95.20;;;;;;5106379;27;20040;-80
2021/03/05 05:46:03;;;;;;;12.18;3.63;;;-1.80;95.20;;;;;;5110052;28;20039;-80
2021/03/05 05:48:38;;;;;;;10.65;3.20;;;-1.80;95.20;;;;;;5109599;28;20730;-80
2021/03/05 05:51:16;;;;;;;8.05;2.47;;;-1.90;95.20;;;;;;5106763;28;20067;-79
2021/03/05 05:53:47;;;;;;;12.32;2.90;;;-1.80;95.20;;;;;;5112232;27;20494;-78
2021/03/05 05:56:19;;;;;;;8.77;2.53;;;-1.90;95.10;;;;;;5111482;28;20036;-80
2021/03/05 05:58:46;;;;;;;14.02;2.47;;;-2.00;95.10;;;;;;5110126;28;20150;-80
2021/03/05 06:01:21;;;;;;;7.53;2.63;;;-2.00;95.10;;;;;;5114633;28;20040;-81
2021/03/05 06:03:54;;;;;;;3.50;1.73;;;-2.10;95.10;;;;;;5095139;28;20641;-80
2021/03/05 06:06:20;;;;;;;6.60;2.10;;;-2.10;95.10;;;;;;5103301;28;20489;-76
2021/03/05 06:08:56;;;;;;;9.80;2.15;;;-2.10;95.20;;;;;;5112679;28;20038;-77
2021/03/05 06:11:22;;;;;;;9.93;2.03;;;-2.20;95.10;;;;;;5105294;28;20042;-79
2021/03/05 06:13:48;;;;;;;13.65;2.17;;;-2.10;95.20;;;;;;5109484;28;20575;-79
2021/03/05 06:16:25;;;;;;;7.70;2.15;;;-2.20;95.20;;;;;;5108169;28;20483;-79
2021/03/05 06:18:54;;;;;;;11.80;2.85;;;-2.20;95.10;;;;;;5114492;28;20141;-79
2021/03/05 06:21:36;;;;;;;7.25;2.35;;;-2.20;95.10;;;;;;5105466;28;20047;-80
2021/03/05 06:24:05;;;;;;;8.00;2.10;;;-2.30;95.00;;;;;;5104775;28;20443;-78
2021/03/05 06:27:00;;;;;;;9.10;2.50;;;-2.30;95.10;;;;;;5123227;27;21841;-76
2021/03/05 06:29:39;;;;;;;8.65;1.92;;;-2.30;95.10;;;;;;5101587;28;20141;-78
2021/03/05 06:32:06;;;;;;;9.65;2.17;;;-2.30;95.20;;;;;;5101816;28;20044;-79
2021/03/05 06:34:54;;;;;;;7.03;1.60;;;-2.30;95.20;;;;;;5113347;28;20051;-79
2021/03/05 06:37:24;;;;;;;8.93;1.73;;;-2.20;95.10;;;;;;5109409;28;20047;-78
2021/03/05 06:39:59;;;;;;;7.05;1.55;;;-2.20;95.30;;;;;;5096305;28;20150;-80
2021/03/05 06:42:25;;;;;;;9.27;1.70;;;-2.10;95.20;;;;;;5106485;28;20100;-78
2021/03/05 06:44:50;;;;;;;5.55;1.13;;;-2.10;95.20;;;;;;5110349;28;20491;-78
2021/03/05 06:47:18;;;;;;;5.88;1.60;;;-2.00;95.30;;;;;;5107737;27;20055;-78
2021/03/05 06:49:48;;;;;;;7.28;1.88;;;-2.00;95.50;;;;;;5096818;28;20036;-76
2021/03/05 06:52:18;;;;;;;7.85;1.75;;;-1.90;95.10;;;;;;5102644;28;20058;-76
2021/03/05 06:54:45;;;;;;;10.13;2.30;;;-1.90;95.20;;;;;;5101660;28;20519;-76
2021/03/05 06:57:25;;;;;;;8.07;2.40;;;-1.90;95.20;;;;;;5101907;28;20470;-77
2021/03/05 06:59:51;;;;;;;15.32;2.80;;;-1.70;95.40;;;;;;5080419;28;20052;-77
2021/03/05 07:02:29;;;;;;;7.28;2.35;;;-1.60;95.50;;;;;;5101898;28;20097;-77
2021/03/05 07:04:54;;;;;;;8.18;1.70;;;-1.60;95.40;;;;;;5104192;28;20499;-77
2021/03/05 07:07:22;;;;;;;8.93;2.60;;;-1.40;95.50;;;;;;5099027;28;20040;-78
2021/03/05 07:09:50;;;;;;;5.43;1.88;;;-1.30;95.50;;;;;;5104356;28;20179;-78
2021/03/05 07:12:19;;;;;;;6.90;2.20;;;-1.20;95.50;;;;;;5106926;28;20079;-78
2021/03/05 07:15:00;;;;;;;10.75;1.75;;;-1.00;95.60;;;;;;5110805;28;20085;-77
2021/03/05 07:17:27;;;;;;;8.82;1.92;;;-0.90;95.50;;;;;;5106373;27;20108;-77
2021/03/05 07:19:56;;;;;;;6.03;1.58;;;-0.70;95.50;;;;;;5110103;28;20060;-77
2021/03/05 07:22:28;;;;;;;5.53;1.05;;;-0.50;95.40;;;;;;5108748;27;20357;-77
2021/03/05 07:24:56;;;;;;;8.23;1.70;;;-0.30;95.30;;;;;;5110422;27;20521;-77
2021/03/05 07:27:28;;;;;;;10.48;1.55;;;-0.10;95.10;;;;;;5104272;27;20068;-77
2021/03/05 07:30:00;;;;;;;6.13;1.05;;;0.10;94.70;;;;;;5108479;28;20044;-76
2021/03/05 07:32:39;;;;;;;6.75;1.85;;;0.20;94.60;;;;;;5098600;28;20044;-78
2021/03/05 07:35:25;;;;;;;4.03;1.02;;;0.40;94.20;;;;;;5105001;28;20052;-77
2021/03/05 07:37:58;;;;;;;5.78;1.50;;;0.60;94.30;;;;;;5097547;28;20043;-80
2021/03/05 07:40:23;;;;;;;8.32;1.52;;;0.80;93.80;;;;;;5106522;28;20079;-79
2021/03/05 07:42:50;;;;;;;9.80;1.30;;;1.00;93.50;;;;;;5106211;28;20069;-78
2021/03/05 07:45:17;;;;;;;6.45;1.15;;;1.10;93.20;;;;;;5100864;27;20409;-79
2021/03/05 07:47:48;;;;;;;5.82;0.88;;;1.30;92.90;;;;;;5078003;28;20039;-79
2021/03/05 07:50:15;;;;;;;5.68;1.08;;;1.50;92.60;;;;;;5097945;28;20040;-78
2021/03/05 07:52:42;;;;;;;3.80;1.20;;;1.70;92.00;;;;;;5102728;28;20051;-80
2021/03/05 07:55:08;;;;;;;3.63;0.95;;;1.90;91.50;;;;;;5107967;27;20111;-80
2021/03/05 07:57:44;;;;;;;7.80;1.45;;;2.10;90.90;;;;;;5094597;28;20032;-79
2021/03/05 08:00:11;;;;;;;5.78;0.80;;;2.20;90.90;;;;;;5099386;28;20040;-79
2021/03/05 08:02:57;;;;;;;8.52;1.15;;;2.30;90.00;;;;;;5097449;28;20042;-79
2021/03/05 08:05:34;;;;;;;8.00;1.63;;;2.50;90.20;;;;;;5103160;28;20043;-79
2021/03/05 08:08:12;;;;;;;10.00;1.33;;;2.80;90.20;;;;;;5105212;28;20040;-79
2021/03/05 08:10:52;;;;;;;4.78;0.90;;;3.00;90.00;;;;;;5103473;28;20036;-79
2021/03/05 08:13:47;;;;;;;9.23;1.10;;;3.20;85.60;;;;;;5100445;28;20371;-79
2021/03/05 08:16:43;;;;;;;6.05;1.33;;;3.40;84.60;;;;;;5099224;28;20036;-79
2021/03/05 08:19:32;;;;;;;11.02;1.77;;;3.70;84.50;;;;;;5085891;28;20062;-79
2021/03/05 08:22:01;;;;;;;4.72;0.95;;;3.90;84.10;;;;;;5098048;28;20044;-78
2021/03/05 08:24:29;;;;;;;4.50;0.90;;;4.00;83.90;;;;;;5100805;28;20079;-79
2021/03/05 08:27:11;;;;;;;6.10;0.95;;;4.00;80.70;;;;;;5097178;28;20028;-79
2021/03/05 08:30:03;;;;;;;4.75;0.60;;;4.10;80.50;;;;;;5094347;28;20042;-78
2021/03/05 08:34:59;;;;;;;2.97;0.38;;;4.40;80.20;;;;;;5101902;28;20032;-79
2021/03/05 08:37:33;;;;;;;4.05;0.70;;;4.60;79.20;;;;;;5103986;28;20040;-79
2021/03/05 08:40:12;;;;;;;4.63;0.70;;;4.90;76.10;;;;;;5106433;28;20027;-79
2021/03/05 08:42:45;;;;;;;4.43;0.90;;;5.00;76.00;;;;;;5103725;28;20051;-80
2021/03/05 08:45:19;;;;;;;3.22;0.50;;;5.10;74.40;;;;;;5103261;28;20481;-80
2021/03/05 08:47:47;;;;;;;3.83;0.55;;;5.20;75.20;;;;;;5103486;28;20177;-79
2021/03/05 08:50:15;;;;;;;5.07;0.57;;;5.20;73.80;;;;;;5103938;27;20040;-79
2021/03/05 08:52:44;;;;;;;5.75;0.40;;;5.10;72.60;;;;;;5106287;28;20051;-80
2021/03/05 08:55:10;;;;;;;4.82;0.60;;;5.20;73.70;;;;;;5113681;27;20743;-79
2021/03/05 08:57:46;;;;;;;5.38;0.95;;;5.20;72.30;;;;;;5103711;27;20523;-79
2021/03/05 09:00:15;;;;;;;4.97;0.73;;;5.30;71.30;;;;;;5103629;28;20054;-79
2021/03/05 09:02:45;;;;;;;6.40;0.73;;;5.40;70.10;;;;;;5110929;28;20354;-80
2021/03/05 09:05:13;;;;;;;2.45;0.55;;;5.40;70.50;;;;;;5104172;28;20031;-79
2021/03/05 09:07:50;;;;;;;3.13;0.50;;;5.40;69.80;;;;;;5110003;28;20145;-79
2021/03/05 09:10:18;;;;;;;2.08;0.43;;;5.40;70.00;;;;;;5106157;27;20526;-79
2021/03/05 09:12:56;;;;;;;3.63;0.40;;;5.50;69.40;;;;;;5108153;28;20452;-80
2021/03/05 09:15:46;;;;;;;3.63;0.80;;;5.60;67.90;;;;;;5114806;28;20039;-80
2021/03/05 09:18:27;;;;;;;2.90;0.50;;;5.70;68.10;;;;;;5071140;28;20051;-79
2021/03/05 09:21:07;;;;;;;2.20;0.52;;;5.80;66.70;;;;;;5114526;28;20053;-79
2021/03/05 09:23:50;;;;;;;4.75;0.65;;;5.70;65.20;;;;;;5113064;28;20035;-79
2021/03/05 09:26:17;;;;;;;4.57;0.73;;;5.60;65.20;;;;;;5108017;28;20048;-80
2021/03/05 09:28:47;;;;;;;2.85;0.47;;;5.70;64.90;;;;;;5111898;28;20063;-79
2021/03/05 09:31:15;;;;;;;1.65;0.30;;;5.70;65.00;;;;;;5112602;27;20485;-79
2021/03/05 09:33:43;;;;;;;2.30;0.50;;;5.70;65.10;;;;;;5107367;28;20119;-78
2021/03/05 09:36:16;;;;;;;5.30;0.50;;;5.80;66.00;;;;;;5109266;28;20081;-80
2021/03/05 09:38:52;;;;;;;4.07;0.22;;;5.90;65.20;;;;;;5113159;28;20068;-79
2021/03/05 09:41:23;;;;;;;2.40;0.20;;;6.00;62.90;;;;;;5113267;28;20031;-79
2021/03/05 09:44:02;;;;;;;3.17;0.52;;;6.10;63.90;;;;;;5106038;28;20035;-79
2021/03/05 09:46:30;;;;;;;2.70;0.63;;;6.10;62.50;;;;;;5112268;28;20074;-78
2021/03/05 09:48:56;;;;;;;3.38;0.40;;;6.00;62.30;;;;;;5111366;28;20078;-80
2021/03/05 09:51:23;;;;;;;3.40;0.70;;;5.90;62.50;;;;;;5111516;28;20035;-80
2021/03/05 09:53:55;;;;;;;2.10;0.50;;;5.90;63.80;;;;;;5103876;28;20445;-80
2021/03/05 09:56:25;;;;;;;2.80;0.70;;;5.90;63.00;;;;;;5104101;28;20071;-78
2021/03/05 09:58:54;;;;;;;5.43;0.70;;;5.80;61.90;;;;;;5106581;28;20059;-78
2021/03/05 10:01:20;;;;;;;1.45;0.40;;;5.90;63.70;;;;;;5101780;28;20392;-80
2021/03/05 10:03:53;;;;;;;3.85;0.65;;;5.90;60.00;;;;;;5107800;28;20047;-79
2021/03/05 10:06:19;;;;;;;4.10;0.60;;;5.80;61.00;;;;;;5109014;28;20114;-77
2021/03/05 10:08:44;;;;;;;2.60;0.50;;;5.80;60.80;;;;;;5099302;27;20131;-77
2021/03/05 10:11:14;;;;;;;5.13;1.13;;;5.80;61.90;;;;;;5111658;28;20055;-77
2021/03/05 10:13:55;;;;;;;3.92;0.52;;;5.80;60.90;;;;;;5102715;28;20096;-77
2021/03/05 10:16:43;;;;;;;3.63;0.50;;;5.80;59.30;;;;;;5105123;28;20459;-78
2021/03/05 10:19:18;;;;;;;3.63;0.38;;;5.70;60.50;;;;;;5100324;28;20063;-78
2021/03/05 10:21:52;;;;;;;3.78;0.32;;;5.70;61.60;;;;;;5107229;28;20035;-77
2021/03/05 10:24:20;;;;;;;2.75;0.20;;;5.70;61.10;;;;;;5102207;28;20047;-78
2021/03/05 10:27:12;;;;;;;2.45;0.30;;;5.70;60.70;;;;;;5093039;28;20519;-78
2021/03/05 10:29:42;;;;;;;3.97;0.60;;;5.80;60.40;;;;;;5107625;28;20485;-78
2021/03/05 10:32:28;;;;;;;3.97;0.40;;;5.60;60.50;;;;;;5111637;28;20415;-78
2021/03/05 10:35:05;;;;;;;2.35;0.30;;;5.40;58.10;;;;;;5110267;28;20052;-78
2021/03/05 10:37:32;;;;;;;1.85;0.30;;;5.30;59.50;;;;;;5103853;28;20040;-78
2021/03/05 10:40:00;;;;;;;3.05;0.40;;;5.20;60.60;;;;;;5107639;28;20035;-78
2021/03/05 10:42:28;;;;;;;2.92;0.30;;;5.20;61.60;;;;;;5105859;28;20043;-78
2021/03/05 10:44:54;;;;;;;2.38;0.50;;;5.10;60.80;;;;;;5101930;27;20521;-78
2021/03/05 10:47:22;;;;;;;1.38;0.30;;;5.00;61.70;;;;;;5111588;28;20039;-78
2021/03/05 10:49:49;;;;;;;4.35;0.70;;;5.00;61.90;;;;;;5103073;28;20061;-78
2021/03/05 10:52:17;;;;;;;4.65;0.70;;;5.00;61.00;;;;;;5107193;28;20052;-78
2021/03/05 10:54:45;;;;;;;2.42;0.22;;;5.10;62.10;;;;;;5103567;28;20411;-79
2021/03/05 10:57:13;;;;;;;1.25;0.30;;;5.30;62.20;;;;;;5106189;28;20032;-78
2021/03/05 10:59:39;;;;;;;4.75;0.60;;;5.40;61.70;;;;;;5103168;28;20124;-78
2021/03/05 11:02:06;;;;;;;2.47;0.40;;;5.40;59.90;;;;;;5105729;28;20476;-78
2021/03/05 11:04:32;;;;;;;2.00;0.30;;;5.30;60.00;;;;;;5109252;28;20039;-78
2021/03/05 11:06:58;;;;;;;4.68;0.57;;;5.30;60.90;;;;;;5106371;28;20089;-78
2021/03/05 11:09:25;;;;;;;3.95;0.63;;;5.40;60.70;;;;;;5111692;28;20380;-78
2021/03/05 11:11:52;;;;;;;3.92;0.45;;;5.50;59.50;;;;;;5107587;28;20040;-78
2021/03/05 11:14:18;;;;;;;2.17;0.40;;;5.50;59.10;;;;;;5105845;28;20673;-78
2021/03/05 11:16:44;;;;;;;0.98;0.30;;;5.70;60.40;;;;;;5101430;28;20032;-78
2021/03/05 11:19:11;;;;;;;4.55;0.20;;;5.80;58.60;;;;;;5098267;28;20072;-78
2021/03/05 11:21:37;;;;;;;5.15;0.50;;;5.90;59.30;;;;;;5108496;28;20081;-78
2021/03/05 11:24:04;;;;;;;1.75;0.38;;;5.70;58.50;;;;;;5110300;28;20047;-78
2021/03/05 11:26:29;;;;;;;1.75;0.70;;;5.70;58.20;;;;;;5108121;28;20115;-78
2021/03/05 11:28:56;;;;;;;2.38;0.40;;;5.60;59.00;;;;;;5109955;28;20100;-78
2021/03/05 11:31:22;;;;;;;2.50;0.32;;;5.70;58.80;;;;;;5102174;28;20027;-78
2021/03/05 11:33:48;;;;;;;3.75;0.52;;;5.80;58.60;;;;;;5105938;28;20097;-78
2021/03/05 11:36:17;;;;;;;3.15;0.55;;;6.00;58.10;;;;;;5112417;28;20048;-79
2021/03/05 11:38:45;;;;;;;4.13;0.30;;;6.10;56.60;;;;;;5108883;28;20367;-79
2021/03/05 11:41:12;;;;;;;2.30;0.25;;;6.20;56.60;;;;;;5110968;28;20092;-79
2021/03/05 11:43:43;;;;;;;4.63;0.73;;;6.10;55.70;;;;;;5102187;28;20475;-79
2021/03/05 11:46:09;;;;;;;2.05;0.50;;;6.10;57.10;;;;;;5110388;28;20126;-79
2021/03/05 11:48:34;;;;;;;4.00;0.45;;;6.10;57.80;;;;;;5095765;28;20453;-78
2021/03/05 11:51:01;;;;;;;4.40;0.68;;;6.20;58.30;;;;;;5112916;28;20032;-78
2021/03/05 11:53:26;;;;;;;5.47;0.50;;;6.20;56.60;;;;;;5101805;28;20518;-78
2021/03/05 11:55:52;;;;;;;2.55;0.32;;;6.20;56.00;;;;;;5108294;28;20134;-79
2021/03/05 11:58:18;;;;;;;1.58;0.55;;;6.30;55.70;;;;;;5106145;28;20036;-79
2021/03/05 12:00:46;;;;;;;1.20;0.22;;;6.30;56.20;;;;;;5103177;28;20048;-79
2021/03/05 12:03:12;;;;;;;2.70;0.40;;;6.50;56.20;;;;;;5102840;28;20093;-78
2021/03/05 12:05:38;;;;;;;2.17;0.40;;;6.50;56.10;;;;;;5105125;28;20456;-78
2021/03/05 12:08:04;;;;;;;1.25;0.35;;;6.60;54.90;;;;;;5108072;28;20119;-77
2021/03/05 12:10:35;;;;;;;2.70;0.45;;;6.60;54.20;;;;;;5110017;28;20035;-78
2021/03/05 12:13:01;;;;;;;2.58;0.40;;;6.70;55.70;;;;;;5104875;28;20032;-80
2021/03/05 12:15:28;;;;;;;3.38;0.50;;;6.80;55.50;;;;;;5112722;28;20039;-79
2021/03/05 12:17:54;;;;;;;2.67;0.47;;;6.70;55.10;;;;;;5111739;28;20071;-79
2021/03/05 12:20:20;;;;;;;4.35;0.90;;;6.70;55.30;;;;;;5108870;28;20063;-79
2021/03/05 12:22:46;;;;;;;3.60;0.22;;;6.50;56.00;;;;;;5112772;28;20104;-80
2021/03/05 12:25:35;;;;;;;3.20;0.40;;;6.30;55.80;;;;;;5082622;28;20515;-81
2021/03/05 12:28:21;;;;;;;6.75;0.68;;;6.10;56.20;;;;;;5107225;28;20075;-80
2021/03/05 12:31:08;;;;;;;1.60;0.20;;;5.90;56.90;;;;;;5090126;28;20513;-80
2021/03/05 12:33:56;;;;;;;4.95;0.75;;;5.90;55.70;;;;;;5096657;28;20498;-81
2021/03/05 12:36:42;;;;;;;4.22;0.50;;;5.80;56.50;;;;;;5098544;28;20054;-80
2021/03/05 12:39:28;;;;;;;2.05;0.40;;;5.90;55.50;;;;;;5107846;28;20388;-81
2021/03/05 12:41:55;;;;;;;1.92;0.43;;;5.90;56.10;;;;;;5094053;28;20044;-80
2021/03/05 12:44:21;;;;;;;1.88;0.40;;;5.90;54.80;;;;;;5110377;28;20044;-81
2021/03/05 12:46:47;;;;;;;3.08;0.32;;;6.00;54.90;;;;;;5111514;28;20035;-80
2021/03/05 12:49:13;;;;;;;2.88;0.30;;;6.00;53.90;;;;;;5095572;28;20117;-81
2021/03/05 12:51:42;;;;;;;3.83;0.70;;;5.90;53.50;;;;;;5109584;28;20055;-80
2021/03/05 12:54:15;;;;;;;3.05;0.40;;;6.10;54.90;;;;;;5112698;28;20082;-81
2021/03/05 12:56:42;;;;;;;2.42;0.60;;;6.20;54.90;;;;;;5102050;28;20453;-80
2021/03/05 12:59:10;;;;;;;4.30;0.52;;;6.30;55.50;;;;;;5111799;28;20135;-80
2021/03/05 13:01:37;;;;;;;3.95;0.50;;;6.50;56.30;;;;;;5092138;28;20065;-80
2021/03/05 13:04:04;;;;;;;1.80;0.20;;;6.60;56.40;;;;;;5105780;28;20052;-80